createdAt,value
2022-09-12T00:00:00.783Z,83.43
2022-09-12T00:00:33.165Z,83.32
2022-09-12T00:01:09.766Z,83.49
2022-09-12T00:01:42.119Z,83.47
2022-09-12T00:02:17.234Z,83.73
2022-09-12T00:02:53.069Z,83.60
2022-09-12T00:03:25.242Z,83.63
2022-09-12T00:04:02.262Z,83.53
2022-09-12T00:04:34.883Z,83.35
2022-09-12T00:05:08.161Z,83.62
2022-09-12T00:05:44.586Z,83.77
2022-09-12T00:06:23.122Z,83.76
2022-09-12T00:06:55.532Z,83.83
2022-09-12T00:07:27.654Z,83.43
2022-09-12T00:08:03.321Z,83.85
2022-09-12T00:08:35.563Z,83.42
2022-09-12T00:09:10.529Z,83.48
2022-09-12T00:09:45.537Z,83.81
2022-09-12T00:10:18.512Z,83.90
2022-09-12T00:10:53.259Z,83.46
2022-09-12T00:11:28.277Z,83.57
2022-09-12T00:12:00.386Z,83.81
2022-09-12T00:12:32.462Z,83.68
2022-09-12T00:13:07.285Z,83.51
2022-09-12T00:13:41.956Z,83.97
2022-09-12T00:14:18.932Z,83.67
2022-09-12T00:14:51.014Z,84.22
2022-09-12T00:15:23.110Z,83.98
2022-09-12T00:15:57.820Z,83.56
2022-09-12T00:16:32.396Z,83.57
2022-09-12T00:17:04.822Z,83.98
2022-09-12T00:17:40.886Z,83.45
2022-09-12T00:18:15.596Z,83.94
2022-09-12T00:18:50.709Z,83.99
2022-09-12T00:19:22.857Z,83.60
2022-09-12T00:19:55.951Z,83.79
2022-09-12T00:20:28.126Z,83.82
2022-09-12T00:21:06.980Z,83.79
2022-09-12T00:21:40.097Z,83.95
2022-09-12T00:22:12.195Z,83.59
2022-09-12T00:22:46.985Z,83.43
2022-09-12T00:23:19.294Z,83.76
2022-09-12T00:23:52.070Z,83.59
2022-09-12T00:24:26.755Z,83.39
2022-09-12T00:24:58.955Z,83.77
2022-09-12T00:25:31.372Z,83.47
2022-09-12T00:26:07.894Z,83.81
2022-09-12T00:26:42.772Z,83.97
2022-09-12T00:27:14.888Z,83.79
2022-09-12T00:27:47.005Z,83.80
2022-09-12T00:28:21.940Z,83.63
2022-09-12T00:28:54.521Z,83.90
2022-09-12T00:29:26.616Z,83.46
2022-09-12T00:30:01.274Z,83.46
2022-09-12T00:30:33.849Z,83.92
2022-09-12T00:31:08.339Z,83.53
2022-09-12T00:31:43.065Z,83.77
2022-09-12T00:32:15.185Z,83.58
2022-09-12T00:32:47.254Z,83.51
2022-09-12T00:33:22.019Z,83.71
2022-09-12T00:33:56.863Z,83.52
2022-09-12T00:34:29.013Z,83.39
2022-09-12T00:35:03.745Z,83.63
2022-09-12T00:35:40.806Z,83.41
2022-09-12T00:36:16.627Z,83.54
2022-09-12T00:36:51.542Z,83.80
2022-09-12T00:37:23.617Z,83.68
2022-09-12T00:37:55.730Z,83.44
2022-09-12T00:38:30.488Z,83.60
2022-09-12T00:39:02.766Z,83.61
2022-09-12T00:39:36.249Z,83.41
2022-09-12T00:40:11.621Z,83.30
2022-09-12T00:40:44.806Z,83.50
2022-09-12T00:41:24.947Z,83.37
2022-09-12T00:41:57.105Z,83.56
2022-09-12T00:42:29.399Z,83.78
2022-09-12T00:43:04.118Z,83.77
2022-09-12T00:43:38.756Z,83.65
2022-09-12T00:44:57.539Z,83.62
2022-09-12T00:45:30.732Z,83.69
2022-09-12T00:46:07.550Z,83.86
2022-09-12T00:46:47.069Z,83.62
2022-09-12T00:47:25.619Z,83.81
2022-09-12T00:48:02.290Z,83.85
2022-09-12T00:48:43.046Z,83.46
2022-09-12T00:49:26.128Z,83.67
2022-09-12T00:50:07.995Z,83.59
2022-09-12T00:50:40.329Z,83.64
2022-09-12T00:51:13.553Z,83.34
2022-09-12T00:51:54.410Z,83.65
2022-09-12T00:52:29.768Z,83.57
2022-09-12T00:53:07.489Z,83.33
2022-09-12T00:53:44.745Z,83.36
2022-09-12T00:54:22.586Z,83.71
2022-09-12T00:54:59.323Z,83.65
2022-09-12T00:55:39.507Z,83.34
2022-09-12T00:56:12.573Z,83.46
2022-09-12T00:56:51.244Z,83.68
2022-09-12T00:57:28.312Z,83.46
2022-09-12T00:58:06.589Z,83.54
2022-09-12T00:58:44.137Z,83.29
2022-09-12T00:59:23.078Z,83.29
2022-09-12T00:59:59.813Z,83.23
2022-09-12T01:00:32.459Z,83.64
2022-09-12T01:01:07.276Z,83.45
2022-09-12T01:01:42.271Z,83.29
2022-09-12T01:02:15.371Z,83.34
2022-09-12T01:02:53.670Z,83.92
2022-09-12T01:03:26.312Z,83.49
2022-09-12T01:03:58.814Z,83.42
2022-09-12T01:04:33.854Z,83.43
2022-09-12T01:05:07.934Z,83.45
2022-09-12T01:05:44.571Z,83.52
2022-09-12T01:06:24.634Z,83.45
2022-09-12T01:06:58.870Z,83.69
2022-09-12T01:07:31.611Z,83.67
2022-09-12T01:08:07.609Z,83.71
2022-09-12T01:08:43.280Z,83.73
2022-09-12T01:09:18.572Z,83.78
2022-09-12T01:09:53.529Z,84.15
2022-09-12T01:10:25.631Z,83.80
2022-09-12T01:10:58.174Z,84.33
2022-09-12T01:11:31.211Z,84.33
2022-09-12T01:12:09.885Z,84.08
2022-09-12T01:12:43.706Z,84.19
2022-09-12T01:13:16.303Z,83.85
2022-09-12T01:13:52.497Z,84.32
2022-09-12T01:14:24.885Z,84.43
2022-09-12T01:14:57.026Z,84.13
2022-09-12T01:15:29.172Z,84.17
2022-09-12T01:16:06.388Z,84.18
2022-09-12T01:16:38.870Z,84.55
2022-09-12T01:17:13.131Z,84.18
2022-09-12T01:18:02.393Z,84.58
2022-09-12T01:18:46.293Z,84.49
2022-09-12T01:19:44.354Z,84.79
2022-09-12T01:20:53.765Z,84.70
2022-09-12T01:21:37.549Z,84.40
2022-09-12T01:22:28.183Z,84.50
2022-09-12T01:23:21.078Z,84.73
2022-09-12T01:24:37.468Z,84.41
2022-09-12T01:25:21.334Z,84.91
2022-09-12T01:26:17.387Z,84.66
2022-09-12T01:27:23.862Z,84.71
2022-09-12T01:28:36.973Z,84.81
2022-09-12T01:29:33.641Z,84.93
2022-09-12T01:30:28.134Z,84.52
2022-09-12T01:31:06.100Z,84.89
2022-09-12T01:31:44.678Z,84.58
2022-09-12T01:32:25.485Z,84.93
2022-09-12T01:33:19.182Z,84.70
2022-09-12T01:34:04.852Z,85.15
2022-09-12T01:34:43.593Z,84.88
2022-09-12T01:35:24.188Z,84.77
2022-09-12T01:36:20.908Z,84.86
2022-09-12T01:37:04.131Z,84.85
2022-09-12T01:37:43.417Z,85.18
2022-09-12T01:38:27.632Z,85.27
2022-09-12T01:39:03.942Z,84.93
2022-09-12T01:39:44.150Z,85.08
2022-09-12T01:40:25.370Z,84.90
2022-09-12T01:41:08.465Z,85.22
2022-09-12T01:41:50.068Z,85.22
2022-09-12T01:42:34.579Z,84.97
2022-09-12T01:43:20.733Z,84.78
2022-09-12T01:44:03.711Z,84.90
2022-09-12T01:44:42.415Z,85.44
2022-09-12T01:45:29.329Z,85.49
2022-09-12T01:46:08.701Z,85.60
2022-09-12T01:46:46.411Z,85.30
2022-09-12T01:47:26.778Z,85.51
2022-09-12T01:48:01.170Z,85.58
2022-09-12T01:48:37.209Z,85.23
2022-09-12T01:49:18.791Z,85.16
2022-09-12T01:49:58.251Z,85.56
2022-09-12T01:50:36.929Z,85.06
2022-09-12T01:51:14.876Z,85.14
2022-09-12T01:51:57.065Z,85.42
2022-09-12T01:52:39.638Z,85.17
2022-09-12T01:53:18.966Z,85.08
2022-09-12T01:53:55.762Z,85.10
2022-09-12T01:54:38.507Z,84.93
2022-09-12T01:55:17.028Z,84.93
2022-09-12T01:55:56.076Z,85.02
2022-09-12T01:56:33.890Z,85.17
2022-09-12T01:57:13.183Z,84.73
2022-09-12T01:57:49.676Z,84.94
2022-09-12T01:58:29.437Z,84.58
2022-09-12T01:59:06.104Z,84.52
2022-09-12T01:59:43.995Z,84.53
2022-09-12T02:00:22.268Z,83.94
2022-09-12T02:01:03.589Z,83.76
2022-09-12T02:01:39.837Z,83.40
2022-09-12T02:02:17.795Z,83.73
2022-09-12T02:02:56.616Z,83.43
2022-09-12T02:03:33.675Z,83.16
2022-09-12T02:04:14.493Z,83.41
2022-09-12T02:04:52.821Z,82.92
2022-09-12T02:05:31.485Z,83.22
2022-09-12T02:06:11.327Z,82.50
2022-09-12T02:06:48.515Z,82.78
2022-09-12T02:07:22.895Z,82.37
2022-09-12T02:08:04.323Z,82.41
2022-09-12T02:08:43.294Z,81.92
2022-09-12T02:09:22.921Z,82.07
2022-09-12T02:10:02.917Z,81.72
2022-09-12T02:10:41.931Z,81.51
2022-09-12T02:11:14.158Z,81.74
2022-09-12T02:11:51.606Z,81.51
2022-09-12T02:12:31.890Z,81.72
2022-09-12T02:13:09.786Z,81.72
2022-09-12T02:13:46.938Z,81.09
2022-09-12T02:14:24.389Z,81.22
2022-09-12T02:15:02.174Z,81.32
2022-09-12T02:15:43.513Z,81.23
2022-09-12T02:16:22.479Z,80.75
2022-09-12T02:16:58.976Z,80.94
2022-09-12T02:17:35.331Z,80.91
2022-09-12T02:18:08.593Z,80.43
2022-09-12T02:18:45.149Z,80.52
2022-09-12T02:19:23.873Z,81.01
2022-09-12T02:19:59.492Z,80.62
2022-09-12T02:20:47.935Z,80.88
2022-09-12T02:21:25.176Z,80.69
2022-09-12T02:22:00.560Z,80.66
2022-09-12T02:22:36.571Z,80.62
2022-09-12T02:23:15.654Z,80.75
2022-09-12T02:23:54.316Z,80.63
2022-09-12T02:24:31.763Z,80.45
2022-09-12T02:25:11.638Z,81.08
2022-09-12T02:25:47.019Z,80.82
2022-09-12T02:26:26.068Z,80.81
2022-09-12T02:27:06.230Z,80.69
2022-09-12T02:27:43.242Z,80.93
2022-09-12T02:28:19.979Z,80.49
2022-09-12T02:28:54.676Z,80.28
2022-09-12T02:29:27.145Z,80.52
2022-09-12T02:30:00.038Z,80.24
2022-09-12T02:30:44.985Z,80.28
2022-09-12T02:31:23.874Z,80.40
2022-09-12T02:31:59.119Z,80.08
2022-09-12T02:32:39.384Z,80.23
2022-09-12T02:33:20.674Z,80.36
2022-09-12T02:34:09.095Z,80.32
2022-09-12T02:34:49.826Z,80.08
2022-09-12T02:35:33.016Z,80.48
2022-09-12T02:36:24.037Z,80.26
2022-09-12T02:37:03.920Z,80.16
2022-09-12T02:37:52.870Z,80.15
2022-09-12T02:38:30.235Z,80.14
2022-09-12T02:39:02.408Z,80.08
2022-09-12T02:39:40.200Z,79.98
2022-09-12T02:40:15.021Z,80.13
2022-09-12T02:40:47.331Z,80.30
2022-09-12T02:41:24.323Z,79.87
2022-09-12T02:42:01.096Z,80.44
2022-09-12T02:42:33.235Z,80.38
2022-09-12T02:43:09.146Z,80.41
2022-09-12T02:43:41.412Z,80.35
2022-09-12T02:44:13.870Z,80.01
2022-09-12T02:44:48.715Z,80.29
2022-09-12T02:45:22.930Z,80.21
2022-09-12T02:45:57.786Z,80.28
2022-09-12T02:46:39.526Z,79.90
2022-09-12T02:47:19.266Z,80.12
2022-09-12T02:47:55.320Z,80.01
2022-09-12T02:48:32.042Z,80.29
2022-09-12T02:49:04.318Z,80.10
2022-09-12T02:49:36.452Z,80.36
2022-09-12T02:50:12.215Z,80.02
2022-09-12T02:50:45.063Z,80.68
2022-09-12T02:51:22.938Z,80.22
2022-09-12T02:51:58.783Z,80.00
2022-09-12T02:52:31.708Z,80.19
2022-09-12T02:53:07.615Z,80.44
2022-09-12T02:53:43.326Z,80.50
2022-09-12T02:54:18.071Z,80.21
2022-09-12T02:54:51.909Z,80.18
2022-09-12T02:55:26.883Z,80.73
2022-09-12T02:55:59.118Z,80.17
2022-09-12T02:56:31.490Z,80.07
2022-09-12T02:57:04.057Z,80.47
2022-09-12T02:57:38.811Z,80.42
2022-09-12T02:58:15.191Z,80.62
2022-09-12T02:58:48.903Z,80.58
2022-09-12T02:59:26.273Z,80.72
2022-09-12T03:00:01.099Z,80.57
2022-09-12T03:00:38.059Z,80.42
2022-09-12T03:01:23.942Z,81.00
2022-09-12T03:02:12.526Z,80.77
2022-09-12T03:03:25.814Z,81.22
2022-09-12T03:04:17.527Z,81.54
2022-09-12T03:05:13.507Z,81.34
2022-09-12T03:05:54.353Z,81.79
2022-09-12T03:06:38.133Z,81.81
2022-09-12T03:07:16.030Z,81.82
2022-09-12T03:08:20.990Z,81.66
2022-09-12T03:09:06.849Z,81.94
2022-09-12T03:09:47.389Z,82.20
2022-09-12T03:10:32.864Z,82.07
2022-09-12T03:11:29.959Z,82.15
2022-09-12T03:12:16.903Z,81.98
2022-09-12T03:12:55.646Z,82.42
2022-09-12T03:13:39.135Z,82.08
2022-09-12T03:14:34.015Z,82.09
2022-09-12T03:15:18.075Z,82.17
2022-09-12T03:16:06.651Z,82.49
2022-09-12T03:16:51.349Z,82.36
2022-09-12T03:17:30.313Z,82.16
2022-09-12T03:18:14.954Z,82.19
2022-09-12T03:18:58.203Z,82.20
2022-09-12T03:19:45.982Z,82.69
2022-09-12T03:20:24.881Z,82.50
2022-09-12T03:21:05.798Z,82.70
2022-09-12T03:21:45.908Z,82.19
2022-09-12T03:22:23.839Z,82.49
2022-09-12T03:23:02.120Z,82.10
2022-09-12T03:23:42.914Z,82.20
2022-09-12T03:24:19.750Z,81.86
2022-09-12T03:25:02.810Z,82.00
2022-09-12T03:25:40.133Z,81.79
2022-09-12T03:26:17.153Z,81.67
2022-09-12T03:26:58.898Z,81.90
2022-09-12T03:27:35.120Z,81.91
2022-09-12T03:28:10.342Z,82.06
2022-09-12T03:28:46.703Z,81.66
2022-09-12T03:29:20.372Z,81.67
2022-09-12T03:29:54.006Z,82.01
2022-09-12T03:30:29.129Z,81.95
2022-09-12T03:31:01.350Z,81.94
2022-09-12T03:31:33.835Z,81.68
2022-09-12T03:32:11.196Z,81.49
2022-09-12T03:32:45.494Z,81.94
2022-09-12T03:33:19.440Z,81.69
2022-09-12T03:33:54.202Z,81.66
2022-09-12T03:34:27.769Z,81.59
2022-09-12T03:34:59.940Z,81.55
2022-09-12T03:35:34.652Z,81.56
2022-09-12T03:36:10.080Z,81.98
2022-09-12T03:36:42.191Z,81.73
2022-09-12T03:37:14.330Z,81.73
2022-09-12T03:37:50.412Z,81.71
2022-09-12T03:38:22.560Z,81.76
2022-09-12T03:38:55.005Z,82.09
2022-09-12T03:39:29.817Z,81.63
2022-09-12T03:40:02.432Z,82.10
2022-09-12T03:40:34.800Z,81.91
2022-09-12T03:41:09.495Z,81.63
2022-09-12T03:41:41.664Z,81.76
2022-09-12T03:42:13.754Z,82.05
2022-09-12T03:42:48.428Z,81.64
2022-09-12T03:43:20.550Z,81.59
2022-09-12T03:43:52.686Z,81.54
2022-09-12T03:44:27.504Z,81.69
2022-09-12T03:44:59.609Z,82.10
2022-09-12T03:45:31.781Z,81.74
2022-09-12T03:46:06.617Z,81.98
2022-09-12T03:46:38.727Z,82.21
2022-09-12T03:47:13.406Z,81.92
2022-09-12T03:47:48.130Z,81.79
2022-09-12T03:48:20.248Z,81.96
2022-09-12T03:48:52.378Z,82.08
2022-09-12T03:49:27.079Z,82.18
2022-09-12T03:49:59.209Z,82.47
2022-09-12T03:50:31.336Z,82.71
2022-09-12T03:51:06.881Z,82.82
2022-09-12T03:51:39.310Z,82.31
2022-09-12T03:52:11.373Z,82.22
2022-09-12T03:52:46.058Z,82.39
2022-09-12T03:53:18.310Z,82.38
2022-09-12T03:53:50.412Z,82.40
2022-09-12T03:54:25.194Z,82.15
2022-09-12T03:54:57.303Z,82.18
2022-09-12T03:55:29.635Z,82.46
2022-09-12T03:56:10.075Z,82.17
2022-09-12T03:56:41.897Z,82.55
2022-09-12T03:57:14.220Z,82.31
2022-09-12T03:57:49.131Z,82.24
2022-09-12T03:58:21.471Z,82.36
2022-09-12T03:58:53.564Z,82.42
2022-09-12T03:59:28.218Z,81.87
2022-09-12T04:00:02.074Z,82.12
2022-09-12T04:00:44.642Z,82.19
2022-09-12T04:01:21.560Z,82.27
2022-09-12T04:01:53.683Z,81.08
2022-09-12T04:02:28.429Z,81.33
2022-09-12T04:03:03.275Z,81.40
2022-09-12T04:03:35.413Z,80.83
2022-09-12T04:04:07.488Z,81.08
2022-09-12T04:04:43.829Z,80.99
2022-09-12T04:05:16.302Z,80.85
2022-09-12T04:05:48.673Z,80.30
2022-09-12T04:06:25.569Z,80.76
2022-09-12T04:06:57.745Z,80.04
2022-09-12T04:07:30.253Z,79.86
2022-09-12T04:08:05.513Z,80.04
2022-09-12T04:08:38.211Z,80.17
2022-09-12T04:09:10.298Z,79.39
2022-09-12T04:09:45.013Z,79.88
2022-09-12T04:10:17.370Z,80.07
2022-09-12T04:10:49.433Z,79.13
2022-09-12T04:11:25.068Z,79.00
2022-09-12T04:11:57.188Z,79.57
2022-09-12T04:12:29.788Z,79.92
2022-09-12T04:13:04.823Z,79.48
2022-09-12T04:13:37.820Z,79.87
2022-09-12T04:14:09.942Z,79.66
2022-09-12T04:14:44.839Z,79.31
2022-09-12T04:15:17.313Z,79.36
2022-09-12T04:15:57.515Z,79.31
2022-09-12T04:16:32.450Z,79.13
2022-09-12T04:17:04.850Z,78.85
2022-09-12T04:17:39.631Z,79.25
2022-09-12T04:18:14.283Z,79.52
2022-09-12T04:18:47.034Z,79.61
2022-09-12T04:19:19.197Z,79.42
2022-09-12T04:19:53.869Z,79.35
2022-09-12T04:20:26.065Z,79.13
2022-09-12T04:20:58.524Z,78.82
2022-09-12T04:21:33.913Z,78.88
2022-09-12T04:22:06.136Z,79.01
2022-09-12T04:22:38.219Z,79.17
2022-09-12T04:23:12.870Z,79.21
2022-09-12T04:23:45.089Z,79.32
2022-09-12T04:24:17.393Z,78.96
2022-09-12T04:24:52.176Z,78.40
2022-09-12T04:25:24.312Z,78.34
2022-09-12T04:25:57.401Z,78.33
2022-09-12T04:26:32.231Z,78.10
2022-09-12T04:27:07.737Z,77.49
2022-09-12T04:27:40.073Z,77.57
2022-09-12T04:28:14.747Z,77.47
2022-09-12T04:28:47.885Z,77.50
2022-09-12T04:29:22.859Z,77.21
2022-09-12T04:29:56.311Z,77.00
2022-09-12T04:30:28.589Z,77.56
2022-09-12T04:31:06.169Z,77.72
2022-09-12T04:31:39.518Z,77.75
2022-09-12T04:32:11.810Z,77.96
2022-09-12T04:32:49.123Z,77.64
2022-09-12T04:33:21.398Z,77.66
2022-09-12T04:33:58.010Z,77.68
2022-09-12T04:34:34.258Z,77.90
2022-09-12T04:35:06.835Z,77.47
2022-09-12T04:35:38.967Z,77.61
2022-09-12T04:36:17.164Z,77.37
2022-09-12T04:36:49.398Z,77.81
2022-09-12T04:37:22.315Z,77.30
2022-09-12T04:37:57.195Z,77.24
2022-09-12T04:38:29.315Z,77.17
2022-09-12T04:39:02.565Z,77.30
2022-09-12T04:39:37.413Z,77.42
2022-09-12T04:40:10.258Z,77.59
2022-09-12T04:40:42.397Z,77.22
2022-09-12T04:41:18.772Z,77.18
2022-09-12T04:41:51.762Z,77.17
2022-09-12T04:42:26.458Z,76.71
2022-09-12T04:42:58.552Z,76.46
2022-09-12T04:43:30.629Z,76.53
2022-09-12T04:44:07.525Z,76.92
2022-09-12T04:44:39.669Z,76.56
2022-09-12T04:45:13.116Z,76.89
2022-09-12T04:45:47.813Z,76.93
2022-09-12T04:46:20.470Z,76.56
2022-09-12T04:46:52.871Z,76.45
2022-09-12T04:47:27.677Z,76.61
2022-09-12T04:48:02.726Z,76.24
2022-09-12T04:48:35.081Z,76.56
2022-09-12T04:49:10.142Z,76.36
2022-09-12T04:49:42.226Z,76.14
2022-09-12T04:50:15.049Z,76.02
2022-09-12T04:50:49.884Z,76.23
2022-09-12T04:51:26.062Z,76.01
2022-09-12T04:51:58.190Z,75.83
2022-09-12T04:52:32.839Z,75.93
2022-09-12T04:53:05.103Z,76.29
2022-09-12T04:53:39.217Z,76.19
2022-09-12T04:54:15.922Z,76.03
2022-09-12T04:54:48.446Z,76.03
2022-09-12T04:55:21.027Z,76.31
2022-09-12T04:55:55.683Z,76.04
2022-09-12T04:56:29.181Z,76.11
2022-09-12T04:57:01.418Z,76.08
2022-09-12T04:57:36.103Z,76.08
2022-09-12T04:58:08.226Z,76.13
2022-09-12T04:58:40.531Z,75.66
2022-09-12T04:59:16.267Z,75.66
2022-09-12T04:59:48.519Z,75.70
2022-09-12T05:00:23.363Z,75.66
2022-09-12T05:00:55.457Z,75.51
2022-09-12T05:01:29.881Z,75.53
2022-09-12T05:02:04.856Z,75.72
2022-09-12T05:02:37.032Z,75.96
2022-09-12T05:03:11.747Z,76.07
2022-09-12T05:03:47.234Z,75.86
2022-09-12T05:04:19.703Z,75.88
2022-09-12T05:04:52.840Z,75.39
2022-09-12T05:05:27.606Z,75.55
2022-09-12T05:06:00.215Z,75.49
2022-09-12T05:06:34.679Z,75.30
2022-09-12T05:07:09.340Z,75.26
2022-09-12T05:07:41.460Z,75.33
2022-09-12T05:08:13.531Z,75.21
2022-09-12T05:08:46.565Z,74.96
2022-09-12T05:09:21.307Z,75.39
2022-09-12T05:09:53.459Z,75.22
2022-09-12T05:10:25.627Z,75.67
2022-09-12T05:11:01.877Z,75.21
2022-09-12T05:12:03.328Z,75.37
2022-09-12T05:12:31.248Z,75.42
2022-09-12T05:13:05.983Z,75.64
2022-09-12T05:13:38.953Z,75.59
2022-09-12T05:14:11.221Z,75.96
2022-09-12T05:14:45.883Z,75.63
2022-09-12T05:15:18.252Z,75.84
2022-09-12T05:15:56.559Z,75.27
2022-09-12T05:16:32.893Z,75.54
2022-09-12T05:17:06.187Z,75.62
2022-09-12T05:17:40.934Z,75.28
2022-09-12T05:18:15.607Z,75.20
2022-09-12T05:18:49.118Z,75.43
2022-09-12T05:19:23.791Z,75.19
2022-09-12T05:19:55.952Z,74.93
2022-09-12T05:20:28.128Z,75.00
2022-09-12T05:21:03.271Z,75.15
2022-09-12T05:21:35.432Z,74.74
2022-09-12T05:22:10.099Z,74.71
2022-09-12T05:22:42.251Z,75.01
2022-09-12T05:23:14.333Z,74.69
2022-09-12T05:23:50.516Z,74.71
2022-09-12T05:24:22.638Z,74.24
2022-09-12T05:24:57.318Z,74.74
2022-09-12T05:25:29.437Z,74.55
2022-09-12T05:26:03.193Z,74.54
2022-09-12T05:26:37.866Z,74.40
2022-09-12T05:27:10.216Z,74.73
2022-09-12T05:27:48.627Z,74.26
2022-09-12T05:28:23.004Z,73.98
2022-09-12T05:28:55.729Z,73.82
2022-09-12T05:29:30.403Z,73.87
2022-09-12T05:30:02.650Z,74.17
2022-09-12T05:30:34.805Z,73.69
2022-09-12T05:31:11.985Z,73.38
2022-09-12T05:31:44.098Z,73.76
2022-09-12T05:32:18.825Z,74.14
2022-09-12T05:32:51.011Z,73.71
2022-09-12T05:33:25.710Z,73.92
2022-09-12T05:33:57.831Z,74.13
2022-09-12T05:34:32.494Z,73.74
2022-09-12T05:35:05.295Z,73.98
2022-09-12T05:35:38.204Z,73.55
2022-09-12T05:36:15.139Z,73.62
2022-09-12T05:36:47.275Z,73.83
2022-09-12T05:37:23.235Z,73.72
2022-09-12T05:37:55.320Z,73.96
2022-09-12T05:38:29.136Z,73.55
2022-09-12T05:39:04.713Z,73.69
2022-09-12T05:39:36.785Z,73.47
2022-09-12T05:40:10.256Z,73.48
2022-09-12T05:40:45.003Z,73.64
2022-09-12T05:41:23.002Z,73.25
2022-09-12T05:41:56.876Z,73.25
2022-09-12T05:42:33.118Z,73.04
2022-09-12T05:43:05.198Z,73.07
2022-09-12T05:43:38.923Z,73.13
2022-09-12T05:44:15.503Z,73.08
2022-09-12T05:44:47.635Z,72.99
2022-09-12T05:45:19.717Z,73.02
2022-09-12T05:45:54.487Z,72.73
2022-09-12T05:46:28.916Z,72.99
2022-09-12T05:47:03.601Z,72.93
2022-09-12T05:47:35.742Z,72.71
2022-09-12T05:48:07.922Z,73.07
2022-09-12T05:48:47.130Z,72.54
2022-09-12T05:49:19.315Z,72.35
2022-09-12T05:49:52.630Z,72.72
2022-09-12T05:50:27.382Z,72.36
2022-09-12T05:51:01.646Z,72.42
2022-09-12T05:51:35.861Z,72.19
2022-09-12T05:52:10.583Z,72.08
2022-09-12T05:52:42.746Z,72.49
2022-09-12T05:53:14.874Z,72.44
2022-09-12T05:53:52.789Z,72.11
2022-09-12T05:54:28.317Z,71.89
2022-09-12T05:55:03.046Z,72.34
2022-09-12T05:55:37.778Z,71.97
2022-09-12T05:56:11.669Z,72.31
2022-09-12T05:56:47.248Z,72.36
2022-09-12T05:57:19.405Z,72.52
2022-09-12T05:57:54.328Z,72.82
2022-09-12T05:58:26.546Z,72.59
2022-09-12T05:59:01.106Z,72.74
2022-09-12T05:59:35.788Z,72.54
2022-09-12T06:00:09.905Z,72.76
2022-09-12T06:00:44.083Z,72.63
2022-09-12T06:01:20.492Z,72.85
2022-09-12T06:01:52.914Z,72.51
2022-09-12T06:02:27.865Z,72.56
2022-09-12T06:02:59.997Z,72.14
2022-09-12T06:03:32.144Z,72.29
2022-09-12T06:04:07.415Z,72.31
2022-09-12T06:04:43.779Z,72.39
2022-09-12T06:05:16.076Z,72.59
2022-09-12T06:05:50.672Z,72.30
2022-09-12T06:06:27.856Z,72.19
2022-09-12T06:06:59.950Z,72.54
2022-09-12T06:07:35.840Z,72.21
2022-09-12T06:08:07.906Z,72.08
2022-09-12T06:08:41.299Z,71.98
2022-09-12T06:09:17.265Z,72.34
2022-09-12T06:09:49.351Z,72.21
2022-09-12T06:10:23.163Z,72.02
2022-09-12T06:11:02.558Z,71.76
2022-09-12T06:11:37.410Z,71.55
2022-09-12T06:12:12.119Z,71.59
2022-09-12T06:12:44.190Z,72.01
2022-09-12T06:13:16.343Z,71.81
2022-09-12T06:13:51.227Z,71.61
2022-09-12T06:14:23.376Z,71.61
2022-09-12T06:14:55.461Z,71.62
2022-09-12T06:15:30.127Z,71.95
2022-09-12T06:16:06.355Z,72.11
2022-09-12T06:16:39.340Z,72.15
2022-09-12T06:17:14.409Z,72.11
2022-09-12T06:17:51.355Z,72.03
2022-09-12T06:18:23.689Z,72.05
2022-09-12T06:18:59.648Z,72.32
2022-09-12T06:19:34.546Z,72.24
2022-09-12T06:20:10.603Z,72.02
2022-09-12T06:20:42.705Z,71.92
2022-09-12T06:21:14.855Z,71.99
2022-09-12T06:21:50.337Z,71.82
2022-09-12T06:22:22.563Z,71.88
2022-09-12T06:22:54.670Z,71.91
2022-09-12T06:23:29.695Z,72.17
2022-09-12T06:24:02.568Z,72.30
2022-09-12T06:24:37.311Z,72.31
2022-09-12T06:25:09.496Z,72.33
2022-09-12T06:25:47.240Z,72.09
2022-09-12T06:26:23.647Z,72.18
2022-09-12T06:26:56.028Z,72.38
2022-09-12T06:27:28.114Z,72.11
2022-09-12T06:28:02.955Z,72.65
2022-09-12T06:28:37.027Z,72.26
2022-09-12T06:29:11.569Z,72.18
2022-09-12T06:29:46.282Z,72.67
2022-09-12T06:30:21.247Z,72.71
2022-09-12T06:31:02.188Z,72.66
2022-09-12T06:31:39.122Z,72.57
2022-09-12T06:32:11.767Z,72.42
2022-09-12T06:32:46.418Z,72.83
2022-09-12T06:33:18.802Z,72.42
2022-09-12T06:33:52.499Z,72.67
2022-09-12T06:34:27.627Z,72.64
2022-09-12T06:35:02.594Z,72.50
2022-09-12T06:35:36.537Z,72.63
2022-09-12T06:36:14.025Z,72.05
2022-09-12T06:36:48.013Z,72.05
2022-09-12T06:37:22.693Z,72.02
2022-09-12T06:37:55.031Z,71.69
2022-09-12T06:38:27.222Z,71.73
2022-09-12T06:39:04.434Z,71.83
2022-09-12T06:39:38.572Z,71.65
2022-09-12T06:40:12.544Z,71.31
2022-09-12T06:40:47.430Z,71.64
2022-09-12T06:41:19.550Z,71.31
2022-09-12T06:41:52.430Z,71.24
2022-09-12T06:42:38.652Z,71.31
2022-09-12T06:43:11.780Z,71.49
2022-09-12T06:43:43.929Z,71.30
2022-09-12T06:44:20.542Z,71.03
2022-09-12T06:44:52.678Z,71.42
2022-09-12T06:45:26.164Z,70.95
2022-09-12T06:46:00.977Z,70.83
2022-09-12T06:46:33.513Z,70.37
2022-09-12T06:47:08.601Z,70.77
2022-09-12T06:47:40.670Z,70.60
2022-09-12T06:48:12.753Z,70.84
2022-09-12T06:48:47.479Z,70.81
2022-09-12T06:49:19.607Z,70.84
2022-09-12T06:49:51.682Z,70.54
2022-09-12T06:50:29.111Z,70.39
2022-09-12T06:51:02.457Z,70.05
2022-09-12T06:51:36.362Z,70.01
2022-09-12T06:52:11.115Z,69.88
2022-09-12T06:52:44.525Z,69.53
2022-09-12T06:53:16.629Z,69.28
2022-09-12T06:53:52.443Z,69.43
2022-09-12T06:54:26.532Z,69.43
2022-09-12T06:55:01.186Z,69.10
2022-09-12T06:55:33.972Z,68.95
2022-09-12T06:56:09.383Z,68.52
2022-09-12T06:56:44.375Z,69.00
2022-09-12T06:57:16.517Z,68.92
2022-09-12T06:57:48.578Z,68.77
2022-09-12T06:58:23.235Z,68.93
2022-09-12T06:58:57.292Z,68.48
2022-09-12T06:59:32.105Z,69.14
2022-09-12T07:00:05.736Z,69.02
2022-09-12T07:00:37.847Z,69.03
2022-09-12T07:01:15.535Z,68.90
2022-09-12T07:01:47.964Z,68.82
2022-09-12T07:02:20.186Z,68.81
2022-09-12T07:02:58.253Z,69.29
2022-09-12T07:03:31.108Z,69.45
2022-09-12T07:04:06.897Z,69.37
2022-09-12T07:04:39.001Z,69.25
2022-09-12T07:05:11.581Z,69.26
2022-09-12T07:05:49.276Z,69.18
2022-09-12T07:06:24.253Z,69.33
2022-09-12T07:06:56.483Z,69.13
2022-09-12T07:07:34.395Z,68.97
2022-09-12T07:08:06.661Z,69.46
2022-09-12T07:08:39.743Z,69.22
2022-09-12T07:09:16.557Z,68.82
2022-09-12T07:09:49.548Z,68.58
2022-09-12T07:10:22.658Z,68.64
2022-09-12T07:10:58.927Z,68.83
2022-09-12T07:11:33.598Z,68.86
2022-09-12T07:12:09.156Z,68.54
2022-09-12T07:12:41.248Z,68.32
2022-09-12T07:13:14.060Z,68.45
2022-09-12T07:13:50.754Z,68.33
2022-09-12T07:14:23.258Z,68.30
2022-09-12T07:14:55.370Z,68.49
2022-09-12T07:15:30.316Z,68.38
2022-09-12T07:16:02.790Z,68.08
2022-09-12T07:16:38.344Z,67.76
2022-09-12T07:17:10.530Z,68.14
2022-09-12T07:17:42.680Z,68.12
2022-09-12T07:18:17.561Z,68.12
2022-09-12T07:18:51.847Z,68.31
2022-09-12T07:19:27.224Z,68.32
2022-09-12T07:19:59.353Z,68.65
2022-09-12T07:20:33.227Z,68.55
2022-09-12T07:21:11.418Z,68.51
2022-09-12T07:21:46.089Z,68.59
2022-09-12T07:22:18.204Z,68.06
2022-09-12T07:22:51.036Z,68.41
2022-09-12T07:23:25.742Z,68.29
2022-09-12T07:23:58.320Z,68.52
2022-09-12T07:24:33.005Z,68.13
2022-09-12T07:25:06.041Z,68.38
2022-09-12T07:25:38.128Z,68.47
2022-09-12T07:26:14.226Z,68.47
2022-09-12T07:26:46.322Z,68.44
2022-09-12T07:27:18.471Z,68.43
2022-09-12T07:27:53.188Z,68.48
2022-09-12T07:28:26.171Z,68.33
2022-09-12T07:29:13.153Z,68.27
2022-09-12T07:29:54.075Z,68.40
2022-09-12T07:30:26.727Z,68.59
2022-09-12T07:31:05.445Z,68.23
2022-09-12T07:31:40.146Z,67.81
2022-09-12T07:32:12.260Z,67.98
2022-09-12T07:32:46.946Z,68.01
2022-09-12T07:33:19.039Z,67.92
2022-09-12T07:33:54.657Z,67.41
2022-09-12T07:34:29.771Z,67.82
2022-09-12T07:35:01.863Z,67.85
2022-09-12T07:35:34.470Z,67.59
2022-09-12T07:36:14.894Z,67.36
2022-09-12T07:36:46.750Z,67.86
2022-09-12T07:37:21.464Z,67.54
2022-09-12T07:37:53.591Z,67.49
2022-09-12T07:38:25.718Z,67.30
2022-09-12T07:39:01.729Z,67.10
2022-09-12T07:39:33.817Z,67.21
2022-09-12T07:40:07.104Z,67.34
2022-09-12T07:40:41.816Z,66.97
2022-09-12T07:41:14.996Z,66.75
2022-09-12T07:41:47.176Z,66.56
2022-09-12T07:42:21.886Z,66.44